createdAt,value
2022-10-25T00:03:34.300Z,88.77
2022-10-25T00:08:35.877Z,89.04
2022-10-25T00:13:37.433Z,89.55
2022-10-25T00:18:38.952Z,89.99
2022-10-25T00:23:40.614Z,89.45
2022-10-25T00:28:42.123Z,90.01
2022-10-25T00:33:44.664Z,91.38
2022-10-25T00:38:46.448Z,91.80
2022-10-25T00:43:50.612Z,91.40
2022-10-25T00:49:24.454Z,90.44
2022-10-25T00:54:31.194Z,91.42
2022-10-25T00:59:32.764Z,91.29
2022-10-25T01:04:34.496Z,91.23
2022-10-25T01:09:37.717Z,93.07
2022-10-25T01:14:42.492Z,91.25
2022-10-25T01:20:05.447Z,92.04
2022-10-25T01:25:25.606Z,91.80
2022-10-25T01:30:47.308Z,90.56
2022-10-25T01:36:06.492Z,91.22
2022-10-25T01:41:27.522Z,91.13
2022-10-25T01:46:51.861Z,91.93
2022-10-25T01:51:53.349Z,93.15
2022-10-25T01:57:05.001Z,93.08
2022-10-25T02:02:24.538Z,93.81
2022-10-25T02:07:30.424Z,92.76
2022-10-25T02:12:48.151Z,94.24
2022-10-25T02:17:56.859Z,93.08
2022-10-25T02:22:58.924Z,92.87
2022-10-25T02:28:02.076Z,92.67
2022-10-25T02:33:03.753Z,94.06
2022-10-25T02:38:05.396Z,95.55
2022-10-25T02:43:06.894Z,94.49
2022-10-25T02:48:08.385Z,93.22
2022-10-25T02:53:09.856Z,94.43
2022-10-25T02:58:11.394Z,94.53
2022-10-25T03:03:12.888Z,93.59
2022-10-25T03:08:14.380Z,94.38
2022-10-25T03:13:16.106Z,93.64
2022-10-25T03:18:17.972Z,92.87
2022-10-25T03:23:19.514Z,93.10
2022-10-25T03:28:21.416Z,93.26
2022-10-25T03:33:23.461Z,93.86
2022-10-25T03:38:25.021Z,94.39
2022-10-25T03:43:26.574Z,94.04
2022-10-25T03:48:28.166Z,93.48
2022-10-25T03:53:29.688Z,93.66
2022-10-25T03:58:31.229Z,93.76
2022-10-25T04:03:32.743Z,92.88
2022-10-25T04:08:34.238Z,92.34
2022-10-25T04:13:35.735Z,92.31
2022-10-25T04:18:37.262Z,91.75
2022-10-25T04:23:38.772Z,91.67
2022-10-25T04:28:40.281Z,91.13
2022-10-25T04:33:45.208Z,90.58
2022-10-25T04:38:50.774Z,90.47
2022-10-25T04:43:52.676Z,90.85
2022-10-25T04:48:54.178Z,90.20
2022-10-25T04:53:56.238Z,89.36
2022-10-25T04:59:00.500Z,89.54
2022-10-25T05:04:01.985Z,89.00
2022-10-25T05:09:04.176Z,89.34
2022-10-25T05:14:05.677Z,89.46
2022-10-25T05:19:07.299Z,88.68
2022-10-25T05:24:08.824Z,88.47
2022-10-25T05:29:11.894Z,87.96
2022-10-25T05:34:13.361Z,87.98
2022-10-25T05:39:14.949Z,87.89
2022-10-25T05:44:16.687Z,87.40
2022-10-25T05:49:18.189Z,87.49
2022-10-25T05:54:19.676Z,87.42
2022-10-25T05:59:21.177Z,87.71
2022-10-25T06:04:23.070Z,87.73
2022-10-25T06:09:24.560Z,87.85
2022-10-25T06:14:26.064Z,87.74
2022-10-25T06:19:27.855Z,87.10
2022-10-25T06:24:29.680Z,86.68
2022-10-25T06:29:31.157Z,86.31
2022-10-25T06:34:32.659Z,86.03
2022-10-25T06:39:34.144Z,86.25
2022-10-25T06:44:35.651Z,85.78
2022-10-25T06:49:37.208Z,85.36
2022-10-25T06:54:38.743Z,84.84
2022-10-25T06:59:40.243Z,85.35
2022-10-25T07:04:41.790Z,85.62
2022-10-25T07:09:43.272Z,84.16
2022-10-25T07:14:44.795Z,83.15
2022-10-25T07:19:46.354Z,82.81
2022-10-25T07:24:47.847Z,82.11
2022-10-25T07:29:49.324Z,83.02
2022-10-25T07:34:50.850Z,82.90
2022-10-25T07:39:52.375Z,82.32
2022-10-25T07:44:53.921Z,82.42
2022-10-25T07:49:57.637Z,82.84
2022-10-25T07:54:59.221Z,81.79
2022-10-25T08:00:00.767Z,81.79
2022-10-25T08:05:02.345Z,80.32
2022-10-25T08:10:04.036Z,78.70
2022-10-25T08:15:06.062Z,79.82
2022-10-25T08:20:07.800Z,78.51
2022-10-25T08:25:09.537Z,77.20
2022-10-25T08:30:11.439Z,76.63
2022-10-25T08:35:13.098Z,77.13
2022-10-25T08:40:19.306Z,76.11
2022-10-25T08:45:24.809Z,77.18
2022-10-25T08:50:34.474Z,77.28
2022-10-25T08:55:41.754Z,76.21
2022-10-25T09:00:56.320Z,76.00
2022-10-25T09:06:02.234Z,75.12
2022-10-25T09:11:14.208Z,74.14
2022-10-25T09:16:18.024Z,74.66
2022-10-25T09:21:46.928Z,74.45
2022-10-25T09:26:57.437Z,74.19
2022-10-25T09:32:00.345Z,73.25
2022-10-25T09:37:12.252Z,73.58
2022-10-25T09:42:20.997Z,73.56
2022-10-25T09:47:31.220Z,73.57
2022-10-25T09:52:55.165Z,74.07
2022-10-25T09:57:56.902Z,73.84
2022-10-25T10:02:58.497Z,74.49
2022-10-25T10:08:00.172Z,74.52
2022-10-25T10:13:28.987Z,75.34
2022-10-25T10:18:34.256Z,73.91
2022-10-25T10:23:38.153Z,73.79
2022-10-25T10:28:45.749Z,73.72
2022-10-25T10:33:49.048Z,74.10
2022-10-25T10:38:50.768Z,74.17
2022-10-25T10:44:07.734Z,73.87
2022-10-25T10:49:10.089Z,73.64
2022-10-25T10:54:24.679Z,73.44
2022-10-25T10:59:27.747Z,73.69
2022-10-25T11:04:29.242Z,73.76
2022-10-25T11:09:30.744Z,74.25
2022-10-25T11:14:32.339Z,73.84
2022-10-25T11:19:52.368Z,73.89
2022-10-25T11:25:06.095Z,72.26
2022-10-25T11:30:14.159Z,72.39
2022-10-25T11:35:24.645Z,72.33
2022-10-25T11:40:38.819Z,72.67
2022-10-25T11:45:49.748Z,72.06
2022-10-25T11:51:14.373Z,71.41
2022-10-25T11:56:38.836Z,71.73
2022-10-25T12:01:57.580Z,70.17
2022-10-25T12:07:06.882Z,71.16
2022-10-25T12:12:13.817Z,70.13
2022-10-25T12:17:23.470Z,70.07
2022-10-25T12:22:29.036Z,69.68
2022-10-25T12:27:31.057Z,69.64
2022-10-25T12:32:36.445Z,68.74
2022-10-25T12:37:49.612Z,69.47
2022-10-25T12:42:54.595Z,70.05
2022-10-25T12:48:20.561Z,68.53
2022-10-25T12:53:56.204Z,68.19
2022-10-25T12:59:13.265Z,69.03
2022-10-25T13:04:45.614Z,68.73
2022-10-25T13:09:47.283Z,69.60
2022-10-25T13:14:51.643Z,71.72
2022-10-25T13:25:31.676Z,75.62
2022-10-25T13:30:33.173Z,76.15
2022-10-25T13:35:37.309Z,75.41
2022-10-25T13:40:38.834Z,76.06
2022-10-25T13:45:45.646Z,73.73
2022-10-25T13:51:16.693Z,70.39
2022-10-25T13:56:23.920Z,70.36
2022-10-25T14:01:25.561Z,69.36
2022-10-25T14:06:37.608Z,70.38
2022-10-25T14:11:49.906Z,70.70
2022-10-25T14:17:09.016Z,69.80
2022-10-25T14:22:16.470Z,70.80
2022-10-25T14:27:29.091Z,70.69
2022-10-25T14:32:30.618Z,70.04
2022-10-25T14:37:32.133Z,70.40
2022-10-25T14:42:33.706Z,71.50
2022-10-25T14:47:36.208Z,70.97
2022-10-25T14:52:37.753Z,72.12
2022-10-25T14:57:39.328Z,72.42
2022-10-25T15:02:40.920Z,72.10
2022-10-25T15:07:43.821Z,73.51
2022-10-25T15:12:50.668Z,73.59
2022-10-25T15:17:52.617Z,74.91
2022-10-25T15:23:03.209Z,75.33
2022-10-25T15:28:13.217Z,76.02
2022-10-25T15:33:25.098Z,76.90
2022-10-25T15:38:37.343Z,77.89
2022-10-25T15:43:43.867Z,78.38
2022-10-25T15:48:47.398Z,78.92
2022-10-25T15:53:50.070Z,79.17
2022-10-25T15:58:51.668Z,80.04
2022-10-25T16:03:53.154Z,80.65
2022-10-25T16:08:54.638Z,80.15
2022-10-25T16:13:56.152Z,80.62
2022-10-25T16:19:01.115Z,80.98
2022-10-25T16:24:05.142Z,81.00
2022-10-25T16:29:06.670Z,81.50
2022-10-25T16:34:08.174Z,81.54
2022-10-25T16:39:11.384Z,82.01
2022-10-25T16:44:15.203Z,82.36
2022-10-25T16:49:16.715Z,84.48
2022-10-25T16:54:21.908Z,84.22
2022-10-25T16:59:25.432Z,84.26
2022-10-25T17:04:27.797Z,84.85
2022-10-25T17:09:29.271Z,84.82
2022-10-25T17:14:30.778Z,85.44
2022-10-25T17:19:32.318Z,85.40
2022-10-25T17:24:37.442Z,85.52
2022-10-25T17:29:39.032Z,86.50
2022-10-25T17:34:40.572Z,85.63
2022-10-25T17:39:42.071Z,85.43
2022-10-25T17:44:44.617Z,85.55
2022-10-25T17:49:46.845Z,85.53
2022-10-25T17:54:48.343Z,85.50
2022-10-25T17:59:50.361Z,85.24
2022-10-25T18:05:19.038Z,86.69
2022-10-25T18:10:13.390Z,87.32
2022-10-25T18:15:15.046Z,86.87
2022-10-25T18:20:17.139Z,87.16
2022-10-25T18:25:18.645Z,87.02
2022-10-25T18:30:20.247Z,87.24
2022-10-25T18:35:21.802Z,87.26
2022-10-25T18:40:23.315Z,87.05
2022-10-25T18:50:31.558Z,86.42
2022-10-25T18:55:33.099Z,86.97
2022-10-25T19:00:35.240Z,87.38
2022-10-25T19:05:39.894Z,86.91
2022-10-25T19:10:42.199Z,86.03
2022-10-25T19:15:43.691Z,86.31
2022-10-25T19:20:46.446Z,87.35
2022-10-25T19:25:48.164Z,89.96
2022-10-25T19:30:49.828Z,89.54
2022-10-25T19:35:51.419Z,88.18
2022-10-25T19:40:53.013Z,89.18
2022-10-25T19:45:58.762Z,87.16
2022-10-25T19:51:11.688Z,87.01
2022-10-25T19:56:16.262Z,87.49
2022-10-25T20:01:28.877Z,88.63
2022-10-25T20:06:32.765Z,90.73
2022-10-25T20:11:34.281Z,88.56
2022-10-25T20:16:36.091Z,89.64
2022-10-25T20:21:37.636Z,88.04
2022-10-25T20:26:41.055Z,87.18
2022-10-25T20:31:42.673Z,86.98
2022-10-25T20:36:44.265Z,87.26
2022-10-25T20:41:45.989Z,86.61
2022-10-25T20:46:47.970Z,87.12
2022-10-25T20:51:49.497Z,86.22
2022-10-25T20:56:50.979Z,86.23
2022-10-25T21:01:52.643Z,87.46
2022-10-25T21:06:56.778Z,88.52
2022-10-25T21:11:58.760Z,87.68
2022-10-25T21:17:00.521Z,89.02
2022-10-25T21:22:02.311Z,88.48
2022-10-25T21:27:04.010Z,89.95
2022-10-25T21:32:05.533Z,89.67
2022-10-25T21:37:07.062Z,90.58
2022-10-25T21:42:08.593Z,89.59
2022-10-25T21:47:10.246Z,89.40
2022-10-25T21:52:11.778Z,88.94
2022-10-25T21:57:13.302Z,89.24
2022-10-25T22:02:15.174Z,90.61
2022-10-25T22:07:16.851Z,91.59
2022-10-25T22:12:18.669Z,90.77
2022-10-25T22:17:20.275Z,90.38
2022-10-25T22:22:22.006Z,89.80
2022-10-25T22:27:23.658Z,91.18
2022-10-25T22:32:25.174Z,90.53
2022-10-25T22:37:26.641Z,91.12
2022-10-25T22:42:28.148Z,92.16
2022-10-25T22:47:29.675Z,90.95
2022-10-25T22:52:31.259Z,91.13
2022-10-25T22:57:32.791Z,92.22
2022-10-25T23:02:34.294Z,90.42
2022-10-25T23:07:35.839Z,91.42
2022-10-25T23:12:37.330Z,91.58
2022-10-25T23:17:38.980Z,91.06
2022-10-25T23:22:40.558Z,91.57
2022-10-25T23:27:42.042Z,91.42
2022-10-25T23:32:43.559Z,90.89
2022-10-25T23:37:45.039Z,91.07
2022-10-25T23:42:46.586Z,89.90
2022-10-25T23:47:48.548Z,90.27
2022-10-25T23:52:50.565Z,91.33
2022-10-25T23:57:58.958Z,91.81
